메인 페이지
METAR-TAF:

METAR-TAF

공항 :

Plainview, 텍사스, 미국

위도: 34-10-05N, 경도: 101-43-02W, 고도: 1028m

현재 날씨관측

예보는 30분 전, 14:35시(UTC)에 발표되었습니다.
남서9kt
온도 17°C
습도 77%
기압 1014 hPa
시정: 16.1km
맑음

METAR: KPVW 221435Z AUTO 22009KT 10SM CLR 17/13 A2993 RMK AO2 T01690125

시각: 10:05 (15:05 UTC)

예보

예보는 3 시간 45분 전, 11:20시(UTC)에 발표되었습니다.
예보 대상 시간: 22일 12시부터 23일 12시까지 (UTC)
11kt
시정: 10km
맑음
22일 1500시부터 (UTC)
남남서11kt
시정: 10km
고도 20000ft 상공 구름 조금
22일 1600시부터 (UTC)
남남서17kt
시정: 10km
고도 8000ft 상공 구름 보통
23일 0100시부터 (UTC)
11kt
시정: 10km
고도 8000ft 상공 구름 조금
23일 0500시부터 (UTC)
23kt, 순간 최대 풍속 33kt
시정: 10km
고도 2500ft 상공 구름 보통

TAF: KPVW 221120Z 2212/2312 18011KT P6SM SKC WS007/21045KT FM221500 20011KT P6SM FEW200 FM221600 21017KT P6SM SCT080 FM230100 18011KT P6SM FEW080 FM230500 01023G33KT P6SM SCT025

4,000개 이상의 공항 관측 자료 및 예보 (METAR 및 TAF 보고).

지도상에서 검색 가능한 기상관측소가 노란 점과 빨간 점으로 표시되어 있습니다.

기상관측소 명을 보려면 표시 위로 마우스를 이동하세요.

날씨 관측과 예보를 보려면 클릭하세요.

지도 변경 : 확대하려면 엑스 표시가 있는 녹색 버튼, 축소하려면 빼기 표시가 있는 녹색 버튼, 다음 페이지의 지도를 보려면 녹색 화살표를 클릭하세요.


METAR-TAF: